Time,TemperatureF,DewpointF,PressureIn,WindDirection,WindDirectionDegrees,WindSpeedMPH,WindSpeedGustMPH,Humidity,HourlyPrecipIn,Conditions,Clouds,dailyrainin,SoftwareType,DateUTC
2013-01-11 00:00:00,38.1,37.1,29.87,ESE,118,7.0,9.0,96,0.23,,FEW120,0.00,VWS V14.01,2013-01-11 06:00:00,
2013-01-11 00:04:00,38.2,37.2,29.87,ESE,116,0.0,7.0,96,0.21,,-RA,0.00,VWS V14.01,2013-01-11 06:04:00,
2013-01-11 00:05:00,38.2,37.2,29.87,SSE,157,4.0,7.0,96,0.21,,FEW120,0.00,VWS V14.01,2013-01-11 06:05:00,
2013-01-11 00:09:00,38.2,37.2,29.86,SE,134,2.0,7.0,96,0.19,,-RA,0.00,VWS V14.01,2013-01-11 06:09:00,
2013-01-11 00:10:00,38.2,37.2,29.86,SE,142,2.0,6.0,96,0.19,,FEW120,0.00,VWS V14.01,2013-01-11 06:10:00,
2013-01-11 00:14:00,38.2,37.2,29.87,SE,138,3.0,11.0,96,0.16,,-RA,0.00,VWS V14.01,2013-01-11 06:14:00,
2013-01-11 00:15:00,38.2,37.2,29.87,SE,144,2.0,7.0,96,0.16,,FEW120,0.00,VWS V14.01,2013-01-11 06:15:00,
2013-01-11 00:19:00,38.2,37.2,29.86,East,101,6.0,6.0,96,0.14,,-RA,0.01,VWS V14.01,2013-01-11 06:19:00,
2013-01-11 00:20:00,38.2,37.2,29.86,SSE,152,4.0,6.0,96,0.14,,FEW120,0.01,VWS V14.01,2013-01-11 06:20:00,
2013-01-11 00:24:00,38.3,37.3,29.86,SE,129,2.0,11.0,96,0.10,,-RA,0.01,VWS V14.01,2013-01-11 06:24:00,
2013-01-11 00:25:00,38.3,37.3,29.86,SE,127,2.0,11.0,96,0.10,,FEW120,0.01,VWS V14.01,2013-01-11 06:25:00,
2013-01-11 00:29:00,38.4,37.4,29.86,SSE,147,3.0,10.0,96,0.08,,-RA,0.01,VWS V14.01,2013-01-11 06:29:00,
2013-01-11 00:30:00,38.4,37.4,29.86,ESE,107,4.0,10.0,96,0.08,,FEW120,0.01,VWS V14.01,2013-01-11 06:30:00,
2013-01-11 00:34:00,38.4,37.4,29.85,SSE,149,5.0,9.0,96,0.06,,-RA,0.01,VWS V14.01,2013-01-11 06:34:00,
2013-01-11 00:35:00,38.4,37.4,29.85,SSE,159,7.0,9.0,96,0.06,,FEW120,0.01,VWS V14.01,2013-01-11 06:35:00,
2013-01-11 00:39:00,38.4,37.4,29.85,SE,125,2.0,8.0,96,0.05,,-RA,0.01,VWS V14.01,2013-01-11 06:39:00,
2013-01-11 00:40:00,38.4,37.4,29.85,SE,125,1.0,8.0,96,0.05,,FEW120,0.01,VWS V14.01,2013-01-11 06:40:00,
2013-01-11 00:44:00,38.5,37.5,29.85,SSE,148,4.0,12.0,96,0.05,,-RA,0.02,VWS V14.01,2013-01-11 06:44:00,
2013-01-11 00:45:00,38.5,37.5,29.85,SSE,148,4.0,12.0,96,0.05,,FEW120,0.02,VWS V14.01,2013-01-11 06:45:00,
2013-01-11 00:49:00,38.5,37.5,29.85,SE,130,4.0,10.0,96,0.04,,-RA,0.02,VWS V14.01,2013-01-11 06:49:00,
2013-01-11 00:50:00,38.5,37.5,29.85,SE,130,4.0,10.0,96,0.04,,FEW120,0.02,VWS V14.01,2013-01-11 06:50:00,
2013-01-11 00:54:00,38.6,37.6,29.85,SSE,155,2.0,7.0,96,0.03,,-RA,0.02,VWS V14.01,2013-01-11 06:54:00,
2013-01-11 00:55:00,38.6,37.6,29.85,SSE,155,2.0,7.0,96,0.03,,FEW120,0.02,VWS V14.01,2013-01-11 06:55:00,
2013-01-11 00:59:00,38.6,37.6,29.85,SSE,159,3.0,8.0,96,0.03,,-RA,0.02,VWS V14.01,2013-01-11 06:59:00,
2013-01-11 01:00:00,38.6,37.6,29.85,SSE,159,3.0,8.0,96,0.03,,FEW120,0.02,VWS V14.01,2013-01-11 07:00:00,
2013-01-11 01:04:00,38.5,37.5,29.84,SSE,148,6.0,8.0,96,0.02,,-RA,0.02,VWS V14.01,2013-01-11 07:04:00,
2013-01-11 01:05:00,38.5,37.5,29.84,SSE,148,6.0,8.0,96,0.02,,FEW120,0.02,VWS V14.01,2013-01-11 07:05:00,
2013-01-11 01:09:00,38.5,37.5,29.84,SE,135,3.0,6.0,96,0.02,,-RA,0.02,VWS V14.01,2013-01-11 07:09:00,
2013-01-11 01:10:00,38.5,37.5,29.84,SE,135,3.0,6.0,96,0.02,,FEW120,0.02,VWS V14.01,2013-01-11 07:10:00,
2013-01-11 01:14:00,38.5,37.5,29.83,SE,132,0.0,6.0,96,0.02,,-RA,0.02,VWS V14.01,2013-01-11 07:14:00,
2013-01-11 01:15:00,38.5,37.5,29.83,SE,132,0.0,6.0,96,0.02,,FEW120,0.02,VWS V14.01,2013-01-11 07:15:00,
2013-01-11 01:19:00,38.4,37.4,29.83,SE,146,2.0,6.0,96,0.02,,-RA,0.02,VWS V14.01,2013-01-11 07:19:00,
2013-01-11 01:20:00,38.4,37.4,29.83,SE,146,2.0,6.0,96,0.02,,FEW120,0.02,VWS V14.01,2013-01-11 07:20:00,
2013-01-11 01:24:00,38.4,37.4,29.83,SSE,157,0.0,5.0,96,0.01,,-RA,0.02,VWS V14.01,2013-01-11 07:24:00,
2013-01-11 01:25:00,38.4,37.4,29.83,SSE,157,0.0,5.0,96,0.01,,FEW120,0.02,VWS V14.01,2013-01-11 07:25:00,
2013-01-11 01:29:00,38.5,37.7,29.83,SE,124,4.0,6.0,97,0.01,,-RA,0.02,VWS V14.01,2013-01-11 07:29:00,
2013-01-11 01:30:00,38.5,37.7,29.83,SE,124,4.0,6.0,97,0.01,,FEW120,0.02,VWS V14.01,2013-01-11 07:30:00,
2013-01-11 01:34:00,38.5,37.7,29.82,East,101,0.0,6.0,97,0.01,,-RA,0.02,VWS V14.01,2013-01-11 07:34:00,
2013-01-11 01:35:00,38.5,37.7,29.82,East,101,0.0,6.0,97,0.01,,FEW120,0.02,VWS V14.01,2013-01-11 07:35:00,
2013-01-11 01:39:00,38.5,37.7,29.81,SE,144,2.0,4.0,97,0.01,,-RA,0.02,VWS V14.01,2013-01-11 07:39:00,
2013-01-11 01:40:00,38.5,37.7,29.81,SE,144,2.0,4.0,97,0.01,,FEW120,0.02,VWS V14.01,2013-01-11 07:40:00,
2013-01-11 01:44:00,38.4,37.6,29.81,SE,134,1.0,5.0,97,0.02,,-RA,0.03,VWS V14.01,2013-01-11 07:44:00,
2013-01-11 01:45:00,38.4,37.6,29.81,SE,134,1.0,5.0,97,0.02,,FEW120,0.03,VWS V14.01,2013-01-11 07:45:00,
2013-01-11 01:49:00,38.4,37.6,29.80,SE,125,0.0,5.0,97,0.01,,-RA,0.03,VWS V14.01,2013-01-11 07:49:00,
2013-01-11 01:50:00,38.4,37.6,29.80,SE,125,0.0,5.0,97,0.01,,FEW120,0.03,VWS V14.01,2013-01-11 07:50:00,
2013-01-11 01:54:00,38.4,37.6,29.80,ESE,122,1.0,5.0,97,0.01,,-RA,0.03,VWS V14.01,2013-01-11 07:54:00,
2013-01-11 01:55:00,38.4,37.6,29.80,ESE,122,1.0,5.0,97,0.01,,FEW120,0.03,VWS V14.01,2013-01-11 07:55:00,
2013-01-11 01:59:00,38.4,37.6,29.80,SE,128,0.0,5.0,97,0.01,,-RA,0.03,VWS V14.01,2013-01-11 07:59:00,
2013-01-11 02:00:00,38.4,37.6,29.80,SE,128,0.0,5.0,97,0.01,,FEW120,0.03,VWS V14.01,2013-01-11 08:00:00,
2013-01-11 02:05:00,38.6,37.8,29.80,SE,128,0.0,7.0,97,0.01,,-RA,0.03,VWS V14.01,2013-01-11 08:05:00,
2013-01-11 02:10:00,38.7,37.9,29.79,SE,126,3.0,6.0,97,0.01,,-RA,0.03,VWS V14.01,2013-01-11 08:10:00,
2013-01-11 02:15:00,38.6,37.8,29.79,ESE,119,2.0,5.0,97,0.01,,-RA,0.03,VWS V14.01,2013-01-11 08:15:00,
2013-01-11 02:20:00,38.4,37.6,29.78,ESE,121,2.0,5.0,97,0.01,,-RA,0.03,VWS V14.01,2013-01-11 08:20:00,
2013-01-11 02:25:00,38.5,37.7,29.78,SE,128,2.0,6.0,97,0.01,,FEW120,0.03,VWS V14.01,2013-01-11 08:25:00,
2013-01-11 02:26:00,38.6,37.8,29.78,ESE,123,4.0,7.0,97,0.01,,-RA,0.03,VWS V14.01,2013-01-11 08:26:00,
2013-01-11 02:30:00,38.7,37.9,29.77,ESE,115,0.0,8.0,97,0.02,,FEW120,0.04,VWS V14.01,2013-01-11 08:30:00,
2013-01-11 02:31:00,38.7,37.9,29.77,ESE,123,0.0,8.0,97,0.02,,-RA,0.04,VWS V14.01,2013-01-11 08:31:00,
2013-01-11 02:35:00,38.9,38.1,29.77,ESE,123,3.0,6.0,97,0.02,,FEW120,0.04,VWS V14.01,2013-01-11 08:35:00,
2013-01-11 02:36:00,38.9,38.1,29.77,SE,128,5.0,6.0,97,0.02,,-RA,0.04,VWS V14.01,2013-01-11 08:36:00,
2013-01-11 02:40:00,38.9,38.1,29.77,ESE,114,0.0,5.0,97,0.02,,FEW120,0.04,VWS V14.01,2013-01-11 08:40:00,
2013-01-11 02:41:00,39.0,38.2,29.77,ESE,114,0.0,4.0,97,0.02,,-RA,0.04,VWS V14.01,2013-01-11 08:41:00,
2013-01-11 02:45:00,39.0,38.2,29.76,ESE,116,1.0,4.0,97,0.02,,FEW120,0.04,VWS V14.01,2013-01-11 08:45:00,
2013-01-11 02:46:00,39.0,38.2,29.76,ESE,116,0.0,4.0,97,0.02,,-RA,0.05,VWS V14.01,2013-01-11 08:46:00,
2013-01-11 02:50:00,39.0,38.2,29.76,ESE,114,0.0,4.0,97,0.02,,FEW120,0.05,VWS V14.01,2013-01-11 08:50:00,
2013-01-11 02:51:00,39.0,38.2,29.76,ESE,119,3.0,5.0,97,0.02,,-RA,0.05,VWS V14.01,2013-01-11 08:51:00,
2013-01-11 02:55:00,39.0,38.2,29.75,ESE,113,0.0,5.0,97,0.02,,FEW120,0.05,VWS V14.01,2013-01-11 08:55:00,
2013-01-11 02:56:00,39.0,38.2,29.75,ESE,112,0.0,3.0,97,0.03,,-RA,0.06,VWS V14.01,2013-01-11 08:56:00,
2013-01-11 03:00:00,38.9,38.1,29.75,ESE,117,4.0,8.0,97,0.04,,FEW120,0.07,VWS V14.01,2013-01-11 09:00:00,
2013-01-11 03:01:00,38.9,38.1,29.75,ESE,117,1.0,8.0,97,0.04,,-RA,0.07,VWS V14.01,2013-01-11 09:01:00,
2013-01-11 03:05:00,38.8,38.0,29.75,ESE,121,0.0,5.0,97,0.04,,FEW120,0.07,VWS V14.01,2013-01-11 09:05:00,
2013-01-11 03:06:00,38.8,38.0,29.75,ESE,122,0.0,2.0,97,0.05,,-RA,0.08,VWS V14.01,2013-01-11 09:06:00,
2013-01-11 03:10:00,38.8,38.0,29.74,ESE,122,5.0,5.0,97,0.05,,FEW120,0.08,VWS V14.01,2013-01-11 09:10:00,
2013-01-11 03:11:00,38.9,38.1,29.74,ESE,113,2.0,5.0,97,0.05,,-RA,0.08,VWS V14.01,2013-01-11 09:11:00,
2013-01-11 03:15:00,39.0,38.2,29.73,SE,126,0.0,5.0,97,0.05,,FEW120,0.08,VWS V14.01,2013-01-11 09:15:00,
2013-01-11 03:16:00,39.1,38.3,29.73,SE,138,1.0,7.0,97,0.05,,-RA,0.08,VWS V14.01,2013-01-11 09:16:00,
2013-01-11 03:20:00,39.1,38.3,29.73,ESE,116,3.0,9.0,97,0.05,,FEW120,0.08,VWS V14.01,2013-01-11 09:20:00,
2013-01-11 03:21:00,39.2,38.4,29.73,ESE,117,0.0,9.0,97,0.05,,-RA,0.08,VWS V14.01,2013-01-11 09:21:00,
2013-01-11 03:25:00,39.3,38.5,29.73,ESE,123,3.0,5.0,97,0.05,,FEW120,0.08,VWS V14.01,2013-01-11 09:25:00,
2013-01-11 03:26:00,39.4,38.6,29.73,SE,124,0.0,5.0,97,0.05,,-RA,0.08,VWS V14.01,2013-01-11 09:26:00,
2013-01-11 03:30:00,39.4,38.6,29.73,SE,125,0.0,4.0,97,0.05,,FEW120,0.08,VWS V14.01,2013-01-11 09:30:00,
2013-01-11 03:31:00,39.5,38.7,29.73,SE,125,1.0,5.0,97,0.05,,-RA,0.09,VWS V14.01,2013-01-11 09:31:00,
2013-01-11 03:35:00,39.5,38.7,29.73,SE,125,4.0,7.0,97,0.05,,FEW120,0.09,VWS V14.01,2013-01-11 09:35:00,
2013-01-11 03:36:00,39.5,38.7,29.72,SE,124,0.0,7.0,97,0.05,,-RA,0.09,VWS V14.01,2013-01-11 09:36:00,
2013-01-11 03:40:00,39.5,38.7,29.72,SSE,153,0.0,3.0,97,0.05,,FEW120,0.09,VWS V14.01,2013-01-11 09:40:00,
2013-01-11 03:41:00,39.5,38.7,29.72,SE,132,0.0,3.0,97,0.05,,-RA,0.09,VWS V14.01,2013-01-11 09:41:00,
2013-01-11 03:45:00,39.4,38.6,29.72,SE,132,3.0,3.0,97,0.05,,FEW120,0.09,VWS V14.01,2013-01-11 09:45:00,
2013-01-11 03:46:00,39.4,38.6,29.72,SE,132,3.0,4.0,97,0.05,,-RA,0.09,VWS V14.01,2013-01-11 09:46:00,
2013-01-11 03:50:00,39.3,38.5,29.71,SE,137,4.0,6.0,97,0.05,,FEW120,0.09,VWS V14.01,2013-01-11 09:50:00,
2013-01-11 03:51:00,39.3,38.5,29.70,SE,136,0.0,6.0,97,0.04,,-RA,0.09,VWS V14.01,2013-01-11 09:51:00,
2013-01-11 03:55:00,39.2,38.4,29.70,ESE,120,0.0,5.0,97,0.04,,FEW120,0.09,VWS V14.01,2013-01-11 09:55:00,
2013-01-11 03:56:00,39.1,38.3,29.70,ESE,119,0.0,5.0,97,0.04,,-RA,0.09,VWS V14.01,2013-01-11 09:56:00,
2013-01-11 04:00:00,39.0,38.2,29.69,ESE,119,0.0,2.0,97,0.04,,FEW120,0.09,VWS V14.01,2013-01-11 10:00:00,
2013-01-11 04:02:00,39.0,38.2,29.69,ESE,119,0.0,2.0,97,0.02,, +RA,0.09,VWS V14.01,2013-01-11 10:02:00,
2013-01-11 04:05:00,38.9,38.1,29.69,ESE,119,0.0,0.0,97,0.02,,FEW120,0.09,VWS V14.01,2013-01-11 10:05:00,
2013-01-11 04:07:00,38.9,38.1,29.69,ESE,119,0.0,3.0,97,0.02,, +RA,0.09,VWS V14.01,2013-01-11 10:07:00,
2013-01-11 04:10:00,38.8,38.0,29.69,ESE,119,0.0,0.0,97,0.02,,FEW120,0.09,VWS V14.01,2013-01-11 10:10:00,
2013-01-11 04:12:00,38.8,38.0,29.68,ESE,119,0.0,0.0,97,0.01,, +RA,0.09,VWS V14.01,2013-01-11 10:12:00,
2013-01-11 04:15:00,38.8,38.0,29.68,ESE,119,0.0,0.0,97,0.01,,FEW120,0.09,VWS V14.01,2013-01-11 10:15:00,
2013-01-11 04:17:00,38.8,38.0,29.68,ESE,119,0.0,0.0,97,0.01,, +RA,0.09,VWS V14.01,2013-01-11 10:17:00,
2013-01-11 04:20:00,38.8,38.0,29.67,ESE,119,0.0,0.0,97,0.01,,FEW120,0.09,VWS V14.01,2013-01-11 10:20:00,
2013-01-11 04:22:00,38.8,38.0,29.67,ESE,119,3.0,5.0,97,0.01,, +RA,0.09,VWS V14.01,2013-01-11 10:22:00,
2013-01-11 04:25:00,38.9,38.1,29.67,ESE,119,0.0,5.0,97,0.01,,FEW120,0.09,VWS V14.01,2013-01-11 10:25:00,
2013-01-11 04:27:00,39.0,38.2,29.67,ESE,119,0.0,3.0,97,0.01,, +RA,0.09,VWS V14.01,2013-01-11 10:27:00,
2013-01-11 04:30:00,39.1,38.3,29.67,ESE,119,0.0,3.0,97,0.01,,FEW120,0.09,VWS V14.01,2013-01-11 10:30:00,
2013-01-11 04:32:00,39.2,38.4,29.66,ESE,117,8.0,8.0,97,0.02,,-RA,0.10,VWS V14.01,2013-01-11 10:32:00,
2013-01-11 04:35:00,39.3,38.5,29.66,ESE,117,3.0,8.0,97,0.02,,FEW120,0.10,VWS V14.01,2013-01-11 10:35:00,
2013-01-11 04:37:00,39.5,38.7,29.66,SE,124,0.0,7.0,97,0.01,,-RA,0.10,VWS V14.01,2013-01-11 10:37:00,
2013-01-11 04:40:00,39.6,38.8,29.65,SE,124,0.0,5.0,97,0.01,,FEW120,0.10,VWS V14.01,2013-01-11 10:40:00,
2013-01-11 04:42:00,39.6,38.8,29.65,ESE,123,0.0,4.0,97,0.01,,-RA,0.10,VWS V14.01,2013-01-11 10:42:00,
2013-01-11 04:45:00,39.5,38.7,29.65,ESE,123,0.0,4.0,97,0.01,,FEW120,0.10,VWS V14.01,2013-01-11 10:45:00,
2013-01-11 04:47:00,39.4,38.6,29.65,ESE,123,0.0,0.0,97,0.01,,-RA,0.10,VWS V14.01,2013-01-11 10:47:00,
2013-01-11 04:50:00,39.4,38.6,29.65,SE,124,0.0,0.0,97,0.01,,FEW120,0.10,VWS V14.01,2013-01-11 10:50:00,
2013-01-11 04:52:00,39.4,38.6,29.65,ESE,123,0.0,0.0,97,0.01,,-RA,0.10,VWS V14.01,2013-01-11 10:52:00,
2013-01-11 04:55:00,39.5,38.7,29.65,ESE,123,0.0,0.0,97,0.01,,FEW120,0.10,VWS V14.01,2013-01-11 10:55:00,
2013-01-11 04:57:00,39.5,38.7,29.64,ESE,123,0.0,0.0,97,0.01,,-RA,0.10,VWS V14.01,2013-01-11 10:57:00,
2013-01-11 05:00:00,39.5,38.7,29.64,ESE,123,0.0,1.0,97,0.01,,FEW120,0.10,VWS V14.01,2013-01-11 11:00:00,
2013-01-11 05:02:00,39.5,38.7,29.64,ESE,123,0.0,1.0,97,0.01,,,0.10,VWS V14.01,2013-01-11 11:02:00,
2013-01-11 05:05:00,39.6,38.8,29.64,ESE,123,0.0,0.0,97,0.01,,FEW120,0.10,VWS V14.01,2013-01-11 11:05:00,
2013-01-11 05:07:00,39.6,38.8,29.64,ESE,123,0.0,0.0,97,0.01,,,0.10,VWS V14.01,2013-01-11 11:07:00,
2013-01-11 05:10:00,39.6,38.8,29.64,ESE,123,0.0,0.0,97,0.01,,FEW120,0.10,VWS V14.01,2013-01-11 11:10:00,
2013-01-11 05:12:00,39.6,38.8,29.64,SE,124,0.0,0.0,97,0.01,,,0.10,VWS V14.01,2013-01-11 11:12:00,
2013-01-11 05:15:00,39.6,38.8,29.64,ESE,123,0.0,0.0,97,0.01,,FEW120,0.10,VWS V14.01,2013-01-11 11:15:00,
2013-01-11 05:17:00,39.6,38.8,29.64,ESE,123,0.0,0.0,97,0.01,,,0.10,VWS V14.01,2013-01-11 11:17:00,
2013-01-11 05:20:00,39.7,38.9,29.64,ESE,123,0.0,0.0,97,0.01,,FEW120,0.10,VWS V14.01,2013-01-11 11:20:00,
2013-01-11 05:22:00,39.7,38.9,29.64,ESE,123,0.0,0.0,97,0.01,,,0.10,VWS V14.01,2013-01-11 11:22:00,
2013-01-11 05:25:00,39.8,39.0,29.65,ESE,123,2.0,4.0,97,0.01,,FEW120,0.10,VWS V14.01,2013-01-11 11:25:00,
2013-01-11 05:27:00,39.9,39.1,29.65,ESE,123,0.0,4.0,97,0.01,,,0.10,VWS V14.01,2013-01-11 11:27:00,
2013-01-11 05:30:00,40.0,39.2,29.65,ESE,123,3.0,4.0,97,0.01,,FEW120,0.10,VWS V14.01,2013-01-11 11:30:00,
2013-01-11 05:33:00,40.2,39.4,29.64,ESE,123,0.0,4.0,97,0.01,,,0.10,VWS V14.01,2013-01-11 11:33:00,
2013-01-11 05:35:00,40.4,39.6,29.64,ESE,123,0.0,0.0,97,0.02,,FEW120,0.11,VWS V14.01,2013-01-11 11:35:00,
2013-01-11 05:38:00,40.7,40.2,29.64,ESE,123,0.0,0.0,98,0.01,,,0.11,VWS V14.01,2013-01-11 11:38:00,
2013-01-11 05:40:00,40.8,40.3,29.64,ESE,122,0.0,0.0,98,0.01,,FEW120,0.11,VWS V14.01,2013-01-11 11:40:00,
2013-01-11 05:43:00,40.9,40.4,29.64,ESE,123,0.0,0.0,98,0.01,,,0.11,VWS V14.01,2013-01-11 11:43:00,
2013-01-11 05:45:00,41.0,40.5,29.63,ESE,123,0.0,0.0,98,0.01,,FEW120,0.11,VWS V14.01,2013-01-11 11:45:00,
2013-01-11 05:48:00,41.0,40.5,29.63,ESE,123,0.0,0.0,98,0.01,,,0.11,VWS V14.01,2013-01-11 11:48:00,
2013-01-11 05:50:00,41.0,40.5,29.63,ESE,123,0.0,0.0,98,0.01,,FEW120,0.11,VWS V14.01,2013-01-11 11:50:00,
2013-01-11 05:53:00,41.1,40.6,29.63,ESE,123,0.0,0.0,98,0.01,,,0.11,VWS V14.01,2013-01-11 11:53:00,
2013-01-11 05:55:00,41.1,40.6,29.63,ESE,123,0.0,0.0,98,0.01,,FEW120,0.11,VWS V14.01,2013-01-11 11:55:00,
2013-01-11 05:58:00,41.2,40.7,29.63,ESE,123,0.0,0.0,98,0.01,,,0.11,VWS V14.01,2013-01-11 11:58:00,
2013-01-11 06:00:00,41.3,40.8,29.63,ESE,123,0.0,0.0,98,0.01,,FEW120,0.11,VWS V14.01,2013-01-11 12:00:00,
2013-01-11 06:03:00,41.3,40.8,29.63,ESE,123,0.0,0.0,98,0.01,,,0.11,VWS V14.01,2013-01-11 12:03:00,
2013-01-11 06:05:00,41.3,40.8,29.63,ESE,123,0.0,0.0,98,0.01,,FEW120,0.11,VWS V14.01,2013-01-11 12:05:00,
2013-01-11 06:08:00,41.3,40.5,29.63,ESE,123,0.0,0.0,97,0.01,,,0.11,VWS V14.01,2013-01-11 12:08:00,
2013-01-11 06:10:00,41.3,40.5,29.63,ESE,123,0.0,0.0,97,0.01,,FEW120,0.11,VWS V14.01,2013-01-11 12:10:00,
2013-01-11 06:13:00,41.2,40.4,29.64,ESE,123,0.0,0.0,97,0.01,,,0.11,VWS V14.01,2013-01-11 12:13:00,
2013-01-11 06:15:00,41.1,40.6,29.63,ESE,123,3.0,4.0,98,0.01,,FEW120,0.11,VWS V14.01,2013-01-11 12:15:00,
2013-01-11 06:18:00,41.0,40.5,29.64,ESE,123,0.0,3.0,98,0.01,,,0.11,VWS V14.01,2013-01-11 12:18:00,
2013-01-11 06:20:00,41.0,40.5,29.64,ESE,123,0.0,3.0,98,0.01,,FEW120,0.11,VWS V14.01,2013-01-11 12:20:00,
2013-01-11 06:23:00,41.0,40.5,29.63,ESE,123,0.0,4.0,98,0.01,,,0.11,VWS V14.01,2013-01-11 12:23:00,
2013-01-11 06:25:00,41.0,40.5,29.63,ESE,123,0.0,4.0,98,0.01,,FEW120,0.11,VWS V14.01,2013-01-11 12:25:00,
2013-01-11 06:28:00,41.0,40.5,29.63,ESE,123,0.0,0.0,98,0.01,,,0.11,VWS V14.01,2013-01-11 12:28:00,
2013-01-11 06:30:00,41.0,40.5,29.63,ESE,123,0.0,0.0,98,0.01,,FEW120,0.11,VWS V14.01,2013-01-11 12:30:00,
2013-01-11 06:33:00,41.0,40.5,29.63,ESE,123,0.0,4.0,98,0.01,,,0.11,VWS V14.01,2013-01-11 12:33:00,
2013-01-11 06:35:00,41.0,40.5,29.63,ESE,123,0.0,4.0,98,0.01,,FEW120,0.11,VWS V14.01,2013-01-11 12:35:00,
2013-01-11 06:38:00,40.9,40.4,29.63,ESE,123,0.0,0.0,98,0.00,,,0.11,VWS V14.01,2013-01-11 12:38:00,
2013-01-11 06:40:00,40.9,40.4,29.63,ESE,123,0.0,0.0,98,0.00,,FEW120,0.11,VWS V14.01,2013-01-11 12:40:00,
2013-01-11 06:43:00,40.8,40.0,29.63,ESE,123,0.0,0.0,97,0.01,,,0.12,VWS V14.01,2013-01-11 12:43:00,
2013-01-11 06:45:00,40.7,39.9,29.63,ESE,123,0.0,0.0,97,0.01,,FEW120,0.12,VWS V14.01,2013-01-11 12:45:00,
2013-01-11 06:49:00,40.6,39.8,29.63,ESE,123,0.0,0.0,97,0.01,,,0.12,VWS V14.01,2013-01-11 12:49:00,
2013-01-11 06:50:00,40.6,39.8,29.63,ESE,123,0.0,0.0,97,0.01,,FEW120,0.12,VWS V14.01,2013-01-11 12:50:00,
2013-01-11 06:54:00,40.3,39.5,29.63,ESE,123,0.0,0.0,97,0.01,,,0.12,VWS V14.01,2013-01-11 12:54:00,
2013-01-11 06:55:00,40.3,39.5,29.63,ESE,123,0.0,0.0,97,0.01,,FEW120,0.12,VWS V14.01,2013-01-11 12:55:00,
2013-01-11 06:59:00,40.1,39.3,29.63,ESE,123,0.0,0.0,97,0.01,,,0.12,VWS V14.01,2013-01-11 12:59:00,
2013-01-11 07:00:00,40.1,39.3,29.63,ESE,123,0.0,0.0,97,0.01,,FEW120,0.12,VWS V14.01,2013-01-11 13:00:00,
2013-01-11 07:04:00,40.1,39.3,29.63,ESE,123,0.0,0.0,97,0.01,,,0.12,VWS V14.01,2013-01-11 13:04:00,
2013-01-11 07:05:00,40.0,39.2,29.63,ESE,123,0.0,0.0,97,0.01,,FEW120,0.12,VWS V14.01,2013-01-11 13:05:00,
2013-01-11 07:09:00,40.1,39.3,29.63,ESE,123,0.0,0.0,97,0.01,,,0.12,VWS V14.01,2013-01-11 13:09:00,
2013-01-11 07:10:00,40.1,39.3,29.63,ESE,122,0.0,0.0,97,0.01,,FEW120,0.12,VWS V14.01,2013-01-11 13:10:00,
2013-01-11 07:14:00,40.2,39.4,29.63,ESE,123,0.0,0.0,97,0.01,,,0.12,VWS V14.01,2013-01-11 13:14:00,
2013-01-11 07:15:00,40.3,39.5,29.63,ESE,123,0.0,0.0,97,0.01,,FEW120,0.12,VWS V14.01,2013-01-11 13:15:00,
2013-01-11 07:19:00,40.6,40.1,29.64,ESE,123,0.0,0.0,98,0.01,,,0.12,VWS V14.01,2013-01-11 13:19:00,
2013-01-11 07:20:00,40.6,40.1,29.64,ESE,123,0.0,0.0,98,0.01,,FEW120,0.12,VWS V14.01,2013-01-11 13:20:00,
2013-01-11 07:24:00,40.7,40.2,29.64,SE,124,0.0,0.0,98,0.01,,,0.12,VWS V14.01,2013-01-11 13:24:00,
2013-01-11 07:25:00,40.7,40.2,29.64,ESE,123,0.0,0.0,98,0.01,,FEW120,0.12,VWS V14.01,2013-01-11 13:25:00,
2013-01-11 07:29:00,40.7,40.2,29.64,ESE,123,0.0,0.0,98,0.02,,,0.13,VWS V14.01,2013-01-11 13:29:00,
2013-01-11 07:30:00,40.7,40.2,29.64,ESE,123,0.0,0.0,98,0.02,,FEW120,0.13,VWS V14.01,2013-01-11 13:30:00,
2013-01-11 07:34:00,40.9,40.4,29.64,ESE,123,0.0,0.0,98,0.02,,-RA,0.13,VWS V14.01,2013-01-11 13:34:00,
2013-01-11 07:35:00,40.9,40.4,29.64,ESE,123,0.0,0.0,98,0.02,,FEW120,0.13,VWS V14.01,2013-01-11 13:35:00,
2013-01-11 07:39:00,41.0,40.5,29.64,ESE,123,0.0,0.0,98,0.02,,-RA,0.13,VWS V14.01,2013-01-11 13:39:00,
2013-01-11 07:40:00,41.0,40.5,29.64,ESE,123,0.0,0.0,98,0.02,,FEW120,0.13,VWS V14.01,2013-01-11 13:40:00,
2013-01-11 07:44:00,41.1,40.6,29.64,ESE,123,0.0,0.0,98,0.02,,-RA,0.13,VWS V14.01,2013-01-11 13:44:00,
2013-01-11 07:45:00,41.1,40.6,29.64,ESE,123,0.0,0.0,98,0.02,,FEW120,0.13,VWS V14.01,2013-01-11 13:45:00,
2013-01-11 07:49:00,41.1,40.6,29.64,SW,221,0.0,5.0,98,0.01,,-RA,0.13,VWS V14.01,2013-01-11 13:49:00,
2013-01-11 07:50:00,41.1,40.6,29.64,SW,221,0.0,5.0,98,0.01,,FEW120,0.13,VWS V14.01,2013-01-11 13:50:00,
2013-01-11 07:54:00,41.1,40.6,29.64,SW,221,2.0,4.0,98,0.01,,-RA,0.13,VWS V14.01,2013-01-11 13:54:00,
2013-01-11 07:55:00,41.1,40.6,29.64,SW,221,0.0,4.0,98,0.01,,FEW120,0.13,VWS V14.01,2013-01-11 13:55:00,
2013-01-11 07:59:00,41.1,40.6,29.64,West,259,5.0,6.0,98,0.01,,-RA,0.13,VWS V14.01,2013-01-11 13:59:00,
2013-01-11 08:00:00,41.1,40.6,29.64,West,259,4.0,6.0,98,0.01,,FEW120,0.13,VWS V14.01,2013-01-11 14:00:00,
2013-01-11 08:04:00,40.9,40.1,29.64,West,263,0.0,5.0,97,0.01,,-RA,0.13,VWS V14.01,2013-01-11 14:04:00,
2013-01-11 08:05:00,40.9,40.1,29.64,West,262,2.0,5.0,97,0.01,,FEW120,0.13,VWS V14.01,2013-01-11 14:05:00,
2013-01-11 08:09:00,40.8,40.0,29.64,SW,236,2.0,6.0,97,0.01,,-RA,0.13,VWS V14.01,2013-01-11 14:09:00,
2013-01-11 08:10:00,40.8,40.0,29.64,SW,236,2.0,6.0,97,0.01,,,0.13,VWS V14.01,2013-01-11 14:10:00,
2013-01-11 08:14:00,40.9,40.1,29.64,SW,234,1.0,4.0,97,0.01,,-RA,0.13,VWS V14.01,2013-01-11 14:14:00,
2013-01-11 08:15:00,40.9,40.1,29.64,SW,234,1.0,4.0,97,0.01,,FEW120,0.13,VWS V14.01,2013-01-11 14:15:00,
2013-01-11 08:19:00,41.0,40.2,29.64,West,260,4.0,6.0,97,0.01,,-RA,0.13,VWS V14.01,2013-01-11 14:19:00,
2013-01-11 08:20:00,41.0,40.2,29.64,West,260,4.0,6.0,97,0.01,,FEW120,0.13,VWS V14.01,2013-01-11 14:20:00,
2013-01-11 08:24:00,41.0,40.5,29.64,SW,221,5.0,8.0,98,0.01,,-RA,0.13,VWS V14.01,2013-01-11 14:24:00,
2013-01-11 08:25:00,41.0,40.5,29.64,SW,221,5.0,8.0,98,0.01,,,0.13,VWS V14.01,2013-01-11 14:25:00,
2013-01-11 08:29:00,41.1,40.6,29.64,SW,221,0.0,7.0,98,0.01,,-RA,0.13,VWS V14.01,2013-01-11 14:29:00,
2013-01-11 08:30:00,41.1,40.6,29.64,SW,221,0.0,7.0,98,0.01,,FEW120,0.13,VWS V14.01,2013-01-11 14:30:00,
2013-01-11 08:34:00,41.1,40.6,29.64,WSW,239,3.0,6.0,98,0.00,,,0.13,VWS V14.01,2013-01-11 14:34:00,
2013-01-11 08:35:00,41.1,40.6,29.64,WSW,239,3.0,6.0,98,0.00,,,0.13,VWS V14.01,2013-01-11 14:35:00,
2013-01-11 08:39:00,41.2,40.7,29.64,West,261,0.0,8.0,98,0.00,,,0.13,VWS V14.01,2013-01-11 14:39:00,
2013-01-11 08:40:00,41.2,40.7,29.64,West,261,0.0,8.0,98,0.00,,FEW120,0.13,VWS V14.01,2013-01-11 14:40:00,
2013-01-11 08:44:00,41.5,41.0,29.64,West,259,5.0,9.0,98,0.00,,,0.13,VWS V14.01,2013-01-11 14:44:00,
2013-01-11 08:45:00,41.5,41.0,29.64,West,259,5.0,9.0,98,0.00,,FEW120,0.13,VWS V14.01,2013-01-11 14:45:00,
2013-01-11 08:49:00,41.7,41.2,29.64,SW,234,0.0,11.0,98,0.00,,,0.13,VWS V14.01,2013-01-11 14:49:00,
2013-01-11 08:50:00,41.7,41.2,29.64,SW,234,0.0,11.0,98,0.00,,FEW120,0.13,VWS V14.01,2013-01-11 14:50:00,
2013-01-11 08:54:00,41.8,41.3,29.64,West,269,4.0,9.0,98,0.00,,,0.13,VWS V14.01,2013-01-11 14:54:00,
2013-01-11 08:55:00,41.8,41.3,29.64,West,269,4.0,9.0,98,0.00,,FEW120,0.13,VWS V14.01,2013-01-11 14:55:00,
2013-01-11 08:59:00,41.9,41.4,29.63,West,272,6.0,9.0,98,0.00,,,0.13,VWS V14.01,2013-01-11 14:59:00,
2013-01-11 09:00:00,41.9,41.4,29.63,West,272,6.0,9.0,98,0.00,,FEW120,0.13,VWS V14.01,2013-01-11 15:00:00,
2013-01-11 09:05:00,42.1,41.6,29.62,West,265,4.0,9.0,98,0.00,,,0.13,VWS V14.01,2013-01-11 15:05:00,
2013-01-11 09:10:00,42.3,41.8,29.62,West,269,1.0,8.0,98,0.00,,,0.13,VWS V14.01,2013-01-11 15:10:00,
2013-01-11 09:15:00,42.6,42.1,29.62,West,259,6.0,8.0,98,0.00,,,0.13,VWS V14.01,2013-01-11 15:15:00,
2013-01-11 09:20:00,42.8,42.3,29.62,WSW,242,2.0,8.0,98,0.00,,,0.13,VWS V14.01,2013-01-11 15:20:00,
2013-01-11 09:25:00,43.1,42.6,29.62,West,271,9.0,9.0,98,0.00,,,0.13,VWS V14.01,2013-01-11 15:25:00,
2013-01-11 09:30:00,43.1,42.6,29.62,WSW,255,6.0,9.0,98,0.00,,,0.13,VWS V14.01,2013-01-11 15:30:00,
2013-01-11 09:35:00,43.3,42.8,29.63,SSW,206,1.0,11.0,98,0.00,,,0.13,VWS V14.01,2013-01-11 15:35:00,
2013-01-11 09:40:00,43.6,43.1,29.63,SW,225,0.0,10.0,98,0.00,,,0.13,VWS V14.01,2013-01-11 15:40:00,
2013-01-11 09:45:00,43.8,43.3,29.64,SW,232,2.0,12.0,98,0.00,,,0.13,VWS V14.01,2013-01-11 15:45:00,
2013-01-11 09:50:00,43.8,43.3,29.63,North,360,9.0,10.0,98,0.00,,FEW120,0.13,VWS V14.01,2013-01-11 15:50:00,
2013-01-11 09:51:00,43.8,43.3,29.63,West,277,7.0,10.0,98,0.00,,,0.13,VWS V14.01,2013-01-11 15:51:00,
2013-01-11 09:55:00,43.9,43.4,29.63,West,281,10.0,11.0,98,0.00,,FEW120,0.13,VWS V14.01,2013-01-11 15:55:00,
2013-01-11 09:56:00,43.9,43.4,29.63,WSW,256,8.0,11.0,98,0.00,,,0.13,VWS V14.01,2013-01-11 15:56:00,
2013-01-11 10:00:00,44.1,43.6,29.63,SSW,210,4.0,10.0,98,0.00,,FEW120,0.13,VWS V14.01,2013-01-11 16:00:00,
2013-01-11 10:01:00,44.2,43.7,29.62,West,267,4.0,10.0,98,0.00,,OVC004,0.13,VWS V14.01,2013-01-11 16:01:00,
2013-01-11 10:05:00,44.3,43.8,29.62,SW,226,1.0,6.0,98,0.00,,FEW120,0.13,VWS V14.01,2013-01-11 16:05:00,
2013-01-11 10:06:00,44.4,43.9,29.63,SW,226,0.0,6.0,98,0.00,,OVC004,0.13,VWS V14.01,2013-01-11 16:06:00,
2013-01-11 10:10:00,44.6,44.1,29.62,WSW,244,6.0,8.0,98,0.00,,FEW120,0.13,VWS V14.01,2013-01-11 16:10:00,
2013-01-11 10:11:00,44.6,44.1,29.62,WSW,249,0.0,8.0,98,0.00,,OVC004,0.13,VWS V14.01,2013-01-11 16:11:00,
2013-01-11 10:15:00,44.7,44.2,29.62,WSW,237,0.0,5.0,98,0.00,,FEW120,0.13,VWS V14.01,2013-01-11 16:15:00,
2013-01-11 10:16:00,44.8,44.3,29.62,WSW,238,0.0,4.0,98,0.00,,OVC004,0.13,VWS V14.01,2013-01-11 16:16:00,
2013-01-11 10:20:00,45.1,44.6,29.62,WSW,238,0.0,0.0,98,0.00,,FEW120,0.13,VWS V14.01,2013-01-11 16:20:00,
2013-01-11 10:21:00,45.2,44.7,29.62,WSW,238,0.0,0.0,98,0.00,,OVC004,0.13,VWS V14.01,2013-01-11 16:21:00,
2013-01-11 10:25:00,45.2,44.7,29.62,South,186,0.0,4.0,98,0.00,,FEW120,0.13,VWS V14.01,2013-01-11 16:25:00,
2013-01-11 10:26:00,45.2,44.7,29.62,South,178,5.0,6.0,98,0.00,,OVC004,0.13,VWS V14.01,2013-01-11 16:26:00,
2013-01-11 10:30:00,45.2,44.7,29.62,South,178,0.0,6.0,98,0.00,,FEW120,0.13,VWS V14.01,2013-01-11 16:30:00,
2013-01-11 10:31:00,45.3,44.8,29.62,South,178,0.0,4.0,98,0.00,,,0.13,VWS V14.01,2013-01-11 16:31:00,
2013-01-11 10:35:00,45.6,45.1,29.63,SSE,160,6.0,7.0,98,0.00,,FEW120,0.13,VWS V14.01,2013-01-11 16:35:00,
2013-01-11 10:36:00,45.5,45.0,29.64,South,180,6.0,10.0,98,0.00,,,0.13,VWS V14.01,2013-01-11 16:36:00,
2013-01-11 10:40:00,45.5,45.0,29.63,South,176,8.0,13.0,98,0.00,,FEW120,0.13,VWS V14.01,2013-01-11 16:40:00,
2013-01-11 10:41:00,45.5,45.0,29.63,South,188,8.0,13.0,98,0.00,,,0.13,VWS V14.01,2013-01-11 16:41:00,
2013-01-11 10:45:00,45.7,45.2,29.63,South,187,6.0,10.0,98,0.00,,FEW120,0.13,VWS V14.01,2013-01-11 16:45:00,
2013-01-11 10:46:00,45.8,45.3,29.63,South,189,9.0,9.0,98,0.00,,,0.13,VWS V14.01,2013-01-11 16:46:00,
2013-01-11 10:50:00,45.9,45.4,29.64,South,186,13.0,16.0,98,0.00,,FEW120,0.13,VWS V14.01,2013-01-11 16:50:00,
2013-01-11 10:51:00,45.8,45.3,29.64,South,179,7.0,16.0,98,0.00,,,0.13,VWS V14.01,2013-01-11 16:51:00,
2013-01-11 10:55:00,45.9,45.4,29.64,SSW,195,10.0,14.0,98,0.00,,FEW120,0.13,VWS V14.01,2013-01-11 16:55:00,
2013-01-11 10:56:00,45.9,45.4,29.64,SSW,210,6.0,14.0,98,0.00,,,0.13,VWS V14.01,2013-01-11 16:56:00,
2013-01-11 11:00:00,46.2,45.4,29.64,SW,229,6.0,10.0,97,0.00,,FEW120,0.13,VWS V14.01,2013-01-11 17:00:00,
2013-01-11 11:01:00,46.3,45.8,29.63,SSW,199,5.0,10.0,98,0.00,,OVC008,0.13,VWS V14.01,2013-01-11 17:01:00,
2013-01-11 11:05:00,46.5,45.7,29.63,South,181,0.0,10.0,97,0.00,,FEW120,0.13,VWS V14.01,2013-01-11 17:05:00,
2013-01-11 11:06:00,46.6,45.8,29.63,South,180,4.0,8.0,97,0.00,,OVC008,0.13,VWS V14.01,2013-01-11 17:06:00,
2013-01-11 11:10:00,46.6,45.8,29.63,South,188,5.0,8.0,97,0.00,,FEW120,0.13,VWS V14.01,2013-01-11 17:10:00,
2013-01-11 11:11:00,46.7,45.9,29.63,SSW,194,0.0,8.0,97,0.00,,OVC008,0.13,VWS V14.01,2013-01-11 17:11:00,
2013-01-11 11:15:00,46.9,46.1,29.63,SSW,196,6.0,9.0,97,0.00,,FEW120,0.13,VWS V14.01,2013-01-11 17:15:00,
2013-01-11 11:16:00,47.0,46.2,29.63,North,360,4.0,12.0,97,0.00,,OVC008,0.13,VWS V14.01,2013-01-11 17:16:00,
2013-01-11 11:20:00,46.9,46.1,29.63,SSW,206,10.0,13.0,97,0.00,,FEW120,0.13,VWS V14.01,2013-01-11 17:20:00,
2013-01-11 11:21:00,46.7,45.9,29.64,SSW,198,10.0,16.0,97,0.00,,OVC008,0.13,VWS V14.01,2013-01-11 17:21:00,
2013-01-11 11:25:00,46.5,45.7,29.63,South,182,9.0,16.0,97,0.00,,FEW120,0.13,VWS V14.01,2013-01-11 17:25:00,
2013-01-11 11:26:00,46.5,45.4,29.63,SSW,205,9.0,14.0,96,0.00,,OVC008,0.13,VWS V14.01,2013-01-11 17:26:00,
2013-01-11 11:30:00,46.4,45.3,29.63,SSW,198,10.0,14.0,96,0.00,,FEW120,0.13,VWS V14.01,2013-01-11 17:30:00,
2013-01-11 11:31:00,46.5,45.4,29.63,South,188,7.0,15.0,96,0.00,,OVC008,0.13,VWS V14.01,2013-01-11 17:31:00,
2013-01-11 11:35:00,46.5,45.4,29.64,South,178,9.0,15.0,96,0.00,,FEW120,0.13,VWS V14.01,2013-01-11 17:35:00,
2013-01-11 11:37:00,46.6,45.5,29.64,SSW,212,6.0,13.0,96,0.00,,OVC008,0.13,VWS V14.01,2013-01-11 17:37:00,
2013-01-11 11:40:00,46.6,45.5,29.64,South,181,15.0,16.0,96,0.00,,FEW120,0.13,VWS V14.01,2013-01-11 17:40:00,
2013-01-11 11:42:00,46.5,45.4,29.64,South,173,8.0,18.0,96,0.01,,OVC008,0.14,VWS V14.01,2013-01-11 17:42:00,
2013-01-11 11:45:00,46.3,45.2,29.64,SSW,205,9.0,20.0,96,0.01,,FEW120,0.14,VWS V14.01,2013-01-11 17:45:00,
2013-01-11 11:47:00,46.2,45.1,29.64,SW,227,11.0,18.0,96,0.01,,OVC008,0.14,VWS V14.01,2013-01-11 17:47:00,
2013-01-11 11:50:00,46.1,45.0,29.64,SW,228,8.0,15.0,96,0.01,,FEW120,0.14,VWS V14.01,2013-01-11 17:50:00,
2013-01-11 11:52:00,46.0,44.9,29.64,SW,215,9.0,16.0,96,0.01,,OVC008,0.14,VWS V14.01,2013-01-11 17:52:00,
2013-01-11 11:55:00,46.0,44.9,29.64,WSW,244,16.0,17.0,96,0.01,,FEW120,0.14,VWS V14.01,2013-01-11 17:55:00,
2013-01-11 11:57:00,46.0,44.9,29.64,SW,236,7.0,17.0,96,0.01,,OVC008,0.14,VWS V14.01,2013-01-11 17:57:00,
2013-01-11 12:00:00,45.9,44.8,29.64,WSW,242,12.0,12.0,96,0.01,,FEW120,0.14,VWS V14.01,2013-01-11 18:00:00,
2013-01-11 12:02:00,45.8,44.5,29.64,SSW,202,4.0,13.0,95,0.01,,OVC004,0.14,VWS V14.01,2013-01-11 18:02:00,
2013-01-11 12:05:00,45.8,44.7,29.63,SSW,194,8.0,13.0,96,0.01,,FEW120,0.14,VWS V14.01,2013-01-11 18:05:00,
2013-01-11 12:07:00,45.6,44.5,29.63,SW,221,10.0,16.0,96,0.01,,OVC004,0.14,VWS V14.01,2013-01-11 18:07:00,
2013-01-11 12:10:00,45.6,44.5,29.63,SW,232,11.0,16.0,96,0.01,,FEW120,0.14,VWS V14.01,2013-01-11 18:10:00,
2013-01-11 12:12:00,45.6,44.5,29.63,SSW,202,4.0,13.0,96,0.01,,OVC004,0.14,VWS V14.01,2013-01-11 18:12:00,
2013-01-11 12:15:00,45.5,44.4,29.63,SSW,207,5.0,13.0,96,0.01,,FEW120,0.14,VWS V14.01,2013-01-11 18:15:00,
2013-01-11 12:17:00,45.5,44.4,29.63,South,182,3.0,13.0,96,0.01,,OVC004,0.14,VWS V14.01,2013-01-11 18:17:00,
2013-01-11 12:20:00,45.5,44.4,29.63,WSW,246,7.0,13.0,96,0.01,,FEW120,0.14,VWS V14.01,2013-01-11 18:20:00,
2013-01-11 12:22:00,45.5,44.4,29.63,SSW,207,7.0,10.0,96,0.01,,OVC004,0.14,VWS V14.01,2013-01-11 18:22:00,
2013-01-11 12:25:00,45.5,44.4,29.62,SW,230,9.0,11.0,96,0.01,,FEW120,0.14,VWS V14.01,2013-01-11 18:25:00,
2013-01-11 12:27:00,45.5,44.4,29.62,SSW,207,8.0,11.0,96,0.01,,OVC004,0.14,VWS V14.01,2013-01-11 18:27:00,
2013-01-11 12:30:00,45.5,44.4,29.63,South,180,6.0,11.0,96,0.01,,FEW120,0.14,VWS V14.01,2013-01-11 18:30:00,
2013-01-11 12:32:00,45.6,44.5,29.63,SW,227,5.0,9.0,96,0.01,,OVC004,0.14,VWS V14.01,2013-01-11 18:32:00,
2013-01-11 12:35:00,45.6,44.5,29.64,SSW,196,7.0,9.0,96,0.01,,FEW120,0.14,VWS V14.01,2013-01-11 18:35:00,
2013-01-11 12:37:00,45.5,44.4,29.64,SSW,203,7.0,10.0,96,0.01,,OVC004,0.14,VWS V14.01,2013-01-11 18:37:00,
2013-01-11 12:40:00,45.4,44.1,29.64,SW,236,5.0,10.0,95,0.01,,FEW120,0.14,VWS V14.01,2013-01-11 18:40:00,
2013-01-11 12:42:00,45.2,43.9,29.64,SSW,201,7.0,13.0,95,0.01,,OVC004,0.14,VWS V14.01,2013-01-11 18:42:00,
2013-01-11 12:45:00,45.1,43.8,29.64,South,190,9.0,16.0,95,0.01,,FEW120,0.14,VWS V14.01,2013-01-11 18:45:00,
2013-01-11 12:47:00,45.0,43.7,29.64,SW,221,14.0,16.0,95,0.00,,OVC004,0.14,VWS V14.01,2013-01-11 18:47:00,
2013-01-11 12:50:00,44.9,43.6,29.64,SW,228,9.0,17.0,95,0.00,,FEW120,0.14,VWS V14.01,2013-01-11 18:50:00,
2013-01-11 12:52:00,44.8,43.5,29.64,SSW,201,11.0,18.0,95,0.00,,OVC004,0.14,VWS V14.01,2013-01-11 18:52:00,
2013-01-11 12:55:00,44.7,43.4,29.64,SW,232,6.0,17.0,95,0.00,,FEW120,0.14,VWS V14.01,2013-01-11 18:55:00,
2013-01-11 12:57:00,44.7,43.4,29.65,SSW,194,18.0,18.0,95,0.00,,OVC004,0.14,VWS V14.01,2013-01-11 18:57:00,
2013-01-11 13:00:00,44.7,43.4,29.65,SW,222,10.0,18.0,95,0.00,,FEW120,0.14,VWS V14.01,2013-01-11 19:00:00,
2013-01-11 13:03:00,44.7,43.4,29.65,SSW,213,9.0,16.0,95,0.00,,,0.14,VWS V14.01,2013-01-11 19:03:00,
2013-01-11 13:05:00,44.7,43.6,29.65,SSW,205,8.0,14.0,96,0.00,,FEW120,0.14,VWS V14.01,2013-01-11 19:05:00,
2013-01-11 13:08:00,44.7,43.4,29.65,South,184,14.0,17.0,95,0.00,,,0.14,VWS V14.01,2013-01-11 19:08:00,
2013-01-11 13:10:00,44.7,43.4,29.65,North,360,10.0,17.0,95,0.00,,FEW120,0.14,VWS V14.01,2013-01-11 19:10:00,
2013-01-11 13:13:00,44.6,43.5,29.65,SW,214,14.0,19.0,96,0.00,,,0.14,VWS V14.01,2013-01-11 19:13:00,
2013-01-11 13:15:00,44.6,43.5,29.65,SSW,192,9.0,19.0,96,0.00,,FEW120,0.14,VWS V14.01,2013-01-11 19:15:00,
2013-01-11 13:18:00,44.6,43.5,29.65,SW,227,6.0,16.0,96,0.00,,,0.14,VWS V14.01,2013-01-11 19:18:00,
2013-01-11 13:20:00,44.5,43.4,29.66,South,185,8.0,16.0,96,0.00,,FEW120,0.14,VWS V14.01,2013-01-11 19:20:00,
2013-01-11 13:23:00,44.4,43.3,29.66,SW,233,5.0,17.0,96,0.00,,,0.14,VWS V14.01,2013-01-11 19:23:00,
2013-01-11 13:25:00,44.4,43.3,29.66,WSW,251,12.0,18.0,96,0.00,,FEW120,0.14,VWS V14.01,2013-01-11 19:25:00,
2013-01-11 13:28:00,44.4,43.3,29.65,North,360,6.0,17.0,96,0.00,,,0.14,VWS V14.01,2013-01-11 19:28:00,
2013-01-11 13:30:00,44.4,43.3,29.65,SW,228,6.0,17.0,96,0.00,,FEW120,0.14,VWS V14.01,2013-01-11 19:30:00,
2013-01-11 13:33:00,44.5,43.4,29.65,SW,234,2.0,11.0,96,0.00,,OVC004,0.14,VWS V14.01,2013-01-11 19:33:00,
2013-01-11 13:35:00,44.5,43.4,29.65,West,263,10.0,13.0,96,0.00,,FEW120,0.14,VWS V14.01,2013-01-11 19:35:00,
2013-01-11 13:38:00,44.5,43.4,29.65,South,185,7.0,13.0,96,0.00,,OVC004,0.14,VWS V14.01,2013-01-11 19:38:00,
2013-01-11 13:40:00,44.5,43.4,29.65,West,271,6.0,13.0,96,0.00,,FEW120,0.14,VWS V14.01,2013-01-11 19:40:00,
2013-01-11 13:43:00,44.5,43.4,29.65,SW,223,8.0,13.0,96,0.00,,OVC004,0.14,VWS V14.01,2013-01-11 19:43:00,
2013-01-11 13:45:00,44.5,43.4,29.65,SW,218,5.0,12.0,96,0.00,,FEW120,0.14,VWS V14.01,2013-01-11 19:45:00,
2013-01-11 13:48:00,44.6,43.5,29.65,South,188,6.0,12.0,96,0.00,,OVC004,0.14,VWS V14.01,2013-01-11 19:48:00,
2013-01-11 13:50:00,44.7,43.6,29.65,South,169,7.0,11.0,96,0.00,,FEW120,0.14,VWS V14.01,2013-01-11 19:50:00,
2013-01-11 13:53:00,44.8,43.7,29.66,SW,232,12.0,12.0,96,0.00,,OVC004,0.14,VWS V14.01,2013-01-11 19:53:00,
2013-01-11 13:55:00,44.8,43.7,29.66,SSW,213,8.0,12.0,96,0.00,,FEW120,0.14,VWS V14.01,2013-01-11 19:55:00,
2013-01-11 13:58:00,44.9,43.8,29.66,SW,235,5.0,8.0,96,0.00,,OVC004,0.14,VWS V14.01,2013-01-11 19:58:00,
2013-01-11 14:00:00,44.9,43.8,29.65,SW,226,4.0,10.0,96,0.00,,FEW120,0.14,VWS V14.01,2013-01-11 20:00:00,
2013-01-11 14:03:00,45.0,43.9,29.65,SW,226,4.0,12.0,96,0.00,,OVC004,0.14,VWS V14.01,2013-01-11 20:03:00,
2013-01-11 14:05:00,45.0,43.9,29.65,SW,232,6.0,12.0,96,0.00,,FEW120,0.14,VWS V14.01,2013-01-11 20:05:00,
2013-01-11 14:08:00,45.2,44.1,29.65,SSW,198,4.0,8.0,96,0.00,,OVC004,0.14,VWS V14.01,2013-01-11 20:08:00,
2013-01-11 14:10:00,45.2,44.1,29.65,South,172,5.0,8.0,96,0.00,,FEW120,0.14,VWS V14.01,2013-01-11 20:10:00,
2013-01-11 14:13:00,45.3,44.2,29.65,South,191,0.0,8.0,96,0.00,,OVC004,0.14,VWS V14.01,2013-01-11 20:13:00,
2013-01-11 14:15:00,45.3,44.2,29.65,SSW,195,2.0,8.0,96,0.00,,FEW120,0.14,VWS V14.01,2013-01-11 20:15:00,
2013-01-11 14:18:00,45.4,44.3,29.65,SSW,202,3.0,7.0,96,0.00,,OVC004,0.14,VWS V14.01,2013-01-11 20:18:00,
2013-01-11 14:20:00,45.5,44.4,29.65,SSW,196,5.0,6.0,96,0.00,,FEW120,0.14,VWS V14.01,2013-01-11 20:20:00,
2013-01-11 14:23:00,45.5,45.5,29.65,SSW,194,5.0,9.0,100,0.00,,OVC004,0.14,VWS V14.01,2013-01-11 20:23:00,
2013-01-11 14:25:00,45.6,44.5,29.65,SW,219,5.0,9.0,96,0.00,,FEW120,0.14,VWS V14.01,2013-01-11 20:25:00,
2013-01-11 14:29:00,45.8,44.7,29.66,South,179,8.0,8.0,96,0.00,,OVC004,0.14,VWS V14.01,2013-01-11 20:29:00,
2013-01-11 14:30:00,45.8,44.7,29.66,SSW,200,6.0,8.0,96,0.00,,FEW120,0.14,VWS V14.01,2013-01-11 20:30:00,
2013-01-11 14:34:00,46.0,44.9,29.66,South,178,5.0,10.0,96,0.00,,OVC006,0.14,VWS V14.01,2013-01-11 20:34:00,
2013-01-11 14:35:00,46.0,44.9,29.66,SSW,207,6.0,10.0,96,0.00,,FEW120,0.14,VWS V14.01,2013-01-11 20:35:00,
2013-01-11 14:39:00,46.2,45.1,29.66,SSW,197,3.0,11.0,96,0.00,,OVC006,0.14,VWS V14.01,2013-01-11 20:39:00,
2013-01-11 14:40:00,46.2,45.1,29.66,South,175,5.0,11.0,96,0.00,,FEW120,0.14,VWS V14.01,2013-01-11 20:40:00,
2013-01-11 14:44:00,46.3,45.0,29.66,SSW,192,9.0,13.0,95,0.00,,OVC006,0.14,VWS V14.01,2013-01-11 20:44:00,
2013-01-11 14:45:00,46.3,45.0,29.66,SSW,198,8.0,13.0,95,0.00,,FEW120,0.14,VWS V14.01,2013-01-11 20:45:00,
2013-01-11 14:49:00,46.4,45.0,29.66,SSW,192,12.0,17.0,95,0.00,,OVC006,0.14,VWS V14.01,2013-01-11 20:49:00,
2013-01-11 14:50:00,46.4,45.0,29.66,South,191,9.0,16.0,95,0.00,,FEW120,0.14,VWS V14.01,2013-01-11 20:50:00,
2013-01-11 14:54:00,46.5,45.2,29.66,SSW,200,7.0,12.0,95,0.00,,OVC006,0.14,VWS V14.01,2013-01-11 20:54:00,
2013-01-11 14:55:00,46.5,45.2,29.67,SSW,193,6.0,11.0,95,0.00,,FEW120,0.14,VWS V14.01,2013-01-11 20:55:00,
2013-01-11 14:59:00,46.5,45.2,29.67,SSE,167,6.0,11.0,95,0.00,,OVC006,0.14,VWS V14.01,2013-01-11 20:59:00,
2013-01-11 15:00:00,46.5,45.2,29.67,South,182,4.0,11.0,95,0.00,,FEW120,0.14,VWS V14.01,2013-01-11 21:00:00,
2013-01-11 15:04:00,46.5,45.2,29.66,SSW,205,7.0,12.0,95,0.00,,OVC006,0.14,VWS V14.01,2013-01-11 21:04:00,
2013-01-11 15:05:00,46.6,45.2,29.66,SSW,200,6.0,12.0,95,0.00,,FEW120,0.14,VWS V14.01,2013-01-11 21:05:00,
2013-01-11 15:09:00,46.7,45.3,29.67,SSW,195,5.0,11.0,95,0.00,,OVC006,0.14,VWS V14.01,2013-01-11 21:09:00,
2013-01-11 15:10:00,46.7,45.3,29.67,South,189,11.0,11.0,95,0.00,,FEW120,0.14,VWS V14.01,2013-01-11 21:10:00,
2013-01-11 15:14:00,46.7,45.3,29.66,SSW,202,7.0,13.0,95,0.00,,OVC006,0.14,VWS V14.01,2013-01-11 21:14:00,
2013-01-11 15:15:00,46.7,45.3,29.65,South,172,6.0,13.0,95,0.00,,FEW120,0.14,VWS V14.01,2013-01-11 21:15:00,
2013-01-11 15:19:00,46.8,45.5,29.66,SSW,192,11.0,14.0,95,0.00,,OVC006,0.14,VWS V14.01,2013-01-11 21:19:00,
2013-01-11 15:20:00,46.8,45.5,29.66,SSW,194,12.0,15.0,95,0.00,,FEW120,0.14,VWS V14.01,2013-01-11 21:20:00,
2013-01-11 15:24:00,46.9,45.5,29.66,SSE,166,11.0,15.0,95,0.00,,OVC006,0.14,VWS V14.01,2013-01-11 21:24:00,
2013-01-11 15:25:00,46.8,45.5,29.66,SSE,163,12.0,15.0,95,0.00,,FEW120,0.14,VWS V14.01,2013-01-11 21:25:00,
2013-01-11 15:29:00,47.0,45.7,29.66,SSW,192,6.0,16.0,95,0.00,,OVC006,0.14,VWS V14.01,2013-01-11 21:29:00,
2013-01-11 15:30:00,47.0,45.7,29.66,South,174,5.0,16.0,95,0.00,,FEW120,0.14,VWS V14.01,2013-01-11 21:30:00,
2013-01-11 15:34:00,47.0,45.4,29.65,South,175,9.0,12.0,94,0.00,,OVC006,0.14,VWS V14.01,2013-01-11 21:34:00,
2013-01-11 15:35:00,47.0,45.4,29.65,South,169,8.0,12.0,94,0.00,,FEW120,0.14,VWS V14.01,2013-01-11 21:35:00,
2013-01-11 15:39:00,47.1,45.5,29.65,South,190,6.0,12.0,94,0.00,,OVC006,0.14,VWS V14.01,2013-01-11 21:39:00,
2013-01-11 15:40:00,47.1,45.5,29.65,South,190,6.0,12.0,94,0.00,,FEW120,0.14,VWS V14.01,2013-01-11 21:40:00,
2013-01-11 15:45:00,47.2,45.6,29.65,SSW,194,6.0,14.0,94,0.00,,OVC006,0.14,VWS V14.01,2013-01-11 21:45:00,
2013-01-11 15:50:00,47.2,45.6,29.64,SSW,196,4.0,10.0,94,0.00,,OVC006,0.14,VWS V14.01,2013-01-11 21:50:00,
2013-01-11 15:55:00,47.3,45.7,29.64,South,171,5.0,10.0,94,0.00,,OVC006,0.14,VWS V14.01,2013-01-11 21:55:00,
2013-01-11 16:00:00,47.2,45.6,29.64,SE,138,6.0,9.0,94,0.00,,OVC012,0.14,VWS V14.01,2013-01-11 22:00:00,
2013-01-11 16:05:00,47.2,45.6,29.63,South,181,5.0,10.0,94,0.00,,OVC012,0.14,VWS V14.01,2013-01-11 22:05:00,
2013-01-11 16:10:00,47.2,45.6,29.64,South,173,4.0,9.0,94,0.00,,FEW120,0.14,VWS V14.01,2013-01-11 22:10:00,
2013-01-11 16:11:00,47.2,45.6,29.64,SSW,201,5.0,8.0,94,0.00,,OVC012,0.14,VWS V14.01,2013-01-11 22:11:00,
2013-01-11 16:15:00,47.2,45.6,29.64,SSW,194,8.0,10.0,94,0.00,,FEW120,0.14,VWS V14.01,2013-01-11 22:15:00,
2013-01-11 16:16:00,47.2,45.6,29.65,South,188,5.0,11.0,94,0.00,,OVC012,0.14,VWS V14.01,2013-01-11 22:16:00,
2013-01-11 16:20:00,47.2,45.6,29.65,South,190,8.0,12.0,94,0.00,,FEW120,0.14,VWS V14.01,2013-01-11 22:20:00,
2013-01-11 16:21:00,47.2,45.6,29.65,South,190,7.0,15.0,94,0.00,,OVC012,0.14,VWS V14.01,2013-01-11 22:21:00,
2013-01-11 16:25:00,47.3,45.7,29.65,South,185,12.0,16.0,94,0.00,,FEW120,0.14,VWS V14.01,2013-01-11 22:25:00,
2013-01-11 16:26:00,47.3,45.7,29.65,South,181,9.0,14.0,94,0.00,,OVC012,0.14,VWS V14.01,2013-01-11 22:26:00,
2013-01-11 16:30:00,47.3,45.7,29.64,South,179,2.0,12.0,94,0.00,,FEW120,0.14,VWS V14.01,2013-01-11 22:30:00,
2013-01-11 16:31:00,47.4,45.8,29.64,South,183,5.0,12.0,94,0.00,,OVC014,0.14,VWS V14.01,2013-01-11 22:31:00,
2013-01-11 16:35:00,47.4,45.8,29.64,South,188,6.0,9.0,94,0.00,,FEW120,0.14,VWS V14.01,2013-01-11 22:35:00,
2013-01-11 16:36:00,47.4,45.8,29.64,South,185,0.0,9.0,94,0.00,,OVC014,0.14,VWS V14.01,2013-01-11 22:36:00,
2013-01-11 16:40:00,46.5,44.6,29.65,SE,132,0.0,7.0,93,0.00,,FEW120,0.14,VWS V14.01,2013-01-11 22:40:00,
2013-01-11 16:41:00,45.9,43.7,29.65,SE,136,0.0,7.0,92,0.00,,OVC014,0.14,VWS V14.01,2013-01-11 22:41:00,
2013-01-11 16:45:00,44.3,41.8,29.65,SE,137,0.0,6.0,91,0.00,,FEW120,0.14,VWS V14.01,2013-01-11 22:45:00,
2013-01-11 16:46:00,43.8,41.3,29.65,SE,134,7.0,7.0,91,0.00,,OVC014,0.14,VWS V14.01,2013-01-11 22:46:00,
2013-01-11 16:50:00,42.7,40.5,29.65,SE,129,5.0,9.0,92,0.00,,FEW120,0.14,VWS V14.01,2013-01-11 22:50:00,
2013-01-11 16:51:00,42.4,40.5,29.65,SE,127,4.0,9.0,93,0.00,,OVC014,0.14,VWS V14.01,2013-01-11 22:51:00,
2013-01-11 16:55:00,42.1,40.5,29.64,SE,124,0.0,9.0,94,0.00,,FEW120,0.14,VWS V14.01,2013-01-11 22:55:00,
2013-01-11 16:56:00,42.1,40.5,29.65,SE,124,0.0,7.0,94,0.00,,OVC014,0.14,VWS V14.01,2013-01-11 22:56:00,
2013-01-11 17:00:00,42.2,40.9,29.64,ESE,123,0.0,5.0,95,0.00,,FEW120,0.14,VWS V14.01,2013-01-11 23:00:00,
2013-01-11 17:01:00,42.4,41.1,29.64,ESE,123,0.0,5.0,95,0.00,,OVC010,0.14,VWS V14.01,2013-01-11 23:01:00,
2013-01-11 17:05:00,42.9,41.8,29.64,South,169,4.0,7.0,96,0.00,,FEW120,0.14,VWS V14.01,2013-01-11 23:05:00,
2013-01-11 17:06:00,43.6,42.5,29.64,South,183,1.0,7.0,96,0.00,,OVC010,0.14,VWS V14.01,2013-01-11 23:06:00,
2013-01-11 17:10:00,44.6,43.8,29.64,SSE,158,0.0,9.0,97,0.00,,FEW120,0.14,VWS V14.01,2013-01-11 23:10:00,
2013-01-11 17:11:00,45.0,44.2,29.64,SE,131,3.0,9.0,97,0.00,,OVC010,0.14,VWS V14.01,2013-01-11 23:11:00,
2013-01-11 17:15:00,45.2,44.1,29.65,SSE,159,4.0,10.0,96,0.00,,FEW120,0.14,VWS V14.01,2013-01-11 23:15:00,
2013-01-11 17:16:00,45.6,44.5,29.64,SE,139,0.0,10.0,96,0.00,,OVC010,0.14,VWS V14.01,2013-01-11 23:16:00,
2013-01-11 17:20:00,45.5,44.4,29.65,SE,138,0.0,5.0,96,0.00,,FEW120,0.14,VWS V14.01,2013-01-11 23:20:00,
2013-01-11 17:21:00,45.0,43.7,29.64,South,183,7.0,11.0,95,0.00,,OVC010,0.14,VWS V14.01,2013-01-11 23:21:00,
2013-01-11 17:25:00,44.9,43.8,29.64,SE,126,0.0,11.0,96,0.00,,FEW120,0.14,VWS V14.01,2013-01-11 23:25:00,
2013-01-11 17:26:00,44.7,43.4,29.64,SE,131,0.0,7.0,95,0.00,,OVC010,0.14,VWS V14.01,2013-01-11 23:26:00,
2013-01-11 17:30:00,45.0,43.9,29.64,South,190,11.0,11.0,96,0.00,,FEW120,0.14,VWS V14.01,2013-01-11 23:30:00,
2013-01-11 17:31:00,46.1,45.0,29.64,South,185,9.0,15.0,96,0.00,,OVC010,0.14,VWS V14.01,2013-01-11 23:31:00,
2013-01-11 17:35:00,46.9,46.1,29.64,South,178,7.0,15.0,97,0.00,,FEW120,0.14,VWS V14.01,2013-01-11 23:35:00,
2013-01-11 17:36:00,47.2,46.4,29.64,South,174,11.0,18.0,97,0.00,,OVC010,0.14,VWS V14.01,2013-01-11 23:36:00,
2013-01-11 17:40:00,47.5,46.4,29.64,South,169,6.0,18.0,96,0.00,,FEW120,0.14,VWS V14.01,2013-01-11 23:40:00,
2013-01-11 17:41:00,47.7,46.6,29.64,South,184,6.0,15.0,96,0.00,,OVC010,0.14,VWS V14.01,2013-01-11 23:41:00,
2013-01-11 17:45:00,47.9,46.8,29.64,South,180,9.0,16.0,96,0.00,,FEW120,0.14,VWS V14.01,2013-01-11 23:45:00,
2013-01-11 17:47:00,47.9,46.5,29.64,South,182,10.0,16.0,95,0.00,,OVC010,0.14,VWS V14.01,2013-01-11 23:47:00,
2013-01-11 17:50:00,48.0,46.6,29.64,SSE,162,3.0,16.0,95,0.00,,FEW120,0.14,VWS V14.01,2013-01-11 23:50:00,
2013-01-11 17:52:00,48.1,46.7,29.64,South,178,8.0,15.0,95,0.00,,OVC010,0.14,VWS V14.01,2013-01-11 23:52:00,
2013-01-11 17:55:00,48.3,46.9,29.64,South,176,14.0,18.0,95,0.00,,,0.14,VWS V14.01,2013-01-11 23:55:00,
2013-01-11 17:57:00,48.5,46.9,29.64,South,177,6.0,18.0,94,0.00,,OVC010,0.14,VWS V14.01,2013-01-11 23:57:00,
2013-01-11 18:00:00,48.5,46.9,29.65,SSE,157,9.0,14.0,94,0.00,,,0.14,VWS V14.01,2013-01-12 00:00:00,
2013-01-11 18:02:00,48.5,46.9,29.65,South,179,9.0,14.0,94,0.00,,OVC014,0.14,VWS V14.01,2013-01-12 00:02:00,
2013-01-11 18:05:00,48.6,46.7,29.65,North,360,8.0,13.0,93,0.00,,FEW120,0.14,VWS V14.01,2013-01-12 00:05:00,
2013-01-11 18:07:00,48.7,46.8,29.65,South,190,7.0,15.0,93,0.00,,OVC014,0.14,VWS V14.01,2013-01-12 00:07:00,
2013-01-11 18:10:00,48.7,46.8,29.65,South,178,11.0,15.0,93,0.00,,FEW120,0.14,VWS V14.01,2013-01-12 00:10:00,
2013-01-11 18:12:00,48.8,46.9,29.65,SSW,199,5.0,14.0,93,0.00,,OVC014,0.14,VWS V14.01,2013-01-12 00:12:00,
2013-01-11 18:15:00,48.8,46.9,29.65,South,184,8.0,15.0,93,0.00,,FEW120,0.14,VWS V14.01,2013-01-12 00:15:00,
2013-01-11 18:17:00,48.8,46.9,29.66,SSE,168,6.0,12.0,93,0.00,,OVC014,0.14,VWS V14.01,2013-01-12 00:17:00,
2013-01-11 18:20:00,48.9,46.7,29.65,South,184,8.0,12.0,92,0.00,,FEW120,0.14,VWS V14.01,2013-01-12 00:20:00,
2013-01-11 18:22:00,48.9,46.7,29.65,South,183,4.0,11.0,92,0.00,,OVC014,0.14,VWS V14.01,2013-01-12 00:22:00,
2013-01-11 18:25:00,48.9,46.7,29.65,SSW,206,5.0,11.0,92,0.00,,FEW120,0.14,VWS V14.01,2013-01-12 00:25:00,
2013-01-11 18:27:00,48.9,46.7,29.65,SSW,205,7.0,11.0,92,0.00,,OVC014,0.14,VWS V14.01,2013-01-12 00:27:00,
2013-01-11 18:30:00,48.9,46.7,29.65,South,178,4.0,10.0,92,0.00,,FEW120,0.14,VWS V14.01,2013-01-12 00:30:00,
2013-01-11 18:32:00,48.7,46.5,29.64,SE,127,2.0,9.0,92,0.00,,OVC014,0.14,VWS V14.01,2013-01-12 00:32:00,
2013-01-11 18:35:00,47.7,44.6,29.64,SE,127,2.0,5.0,89,0.00,,FEW120,0.14,VWS V14.01,2013-01-12 00:35:00,
2013-01-11 18:37:00,46.3,43.0,29.65,SE,127,0.0,3.0,88,0.00,,OVC014,0.14,VWS V14.01,2013-01-12 00:37:00,
2013-01-11 18:40:00,45.6,42.5,29.65,SE,125,0.0,5.0,89,0.00,,FEW120,0.14,VWS V14.01,2013-01-12 00:40:00,
2013-01-11 18:42:00,44.9,42.2,29.65,ESE,123,0.0,5.0,90,0.00,,OVC014,0.14,VWS V14.01,2013-01-12 00:42:00,
2013-01-11 18:45:00,44.2,41.5,29.65,SE,129,0.0,7.0,90,0.00,,FEW120,0.14,VWS V14.01,2013-01-12 00:45:00,
2013-01-11 18:47:00,43.8,41.3,29.64,SE,130,3.0,5.0,91,0.00,,OVC014,0.14,VWS V14.01,2013-01-12 00:47:00,
2013-01-11 18:50:00,43.3,40.8,29.65,SE,130,0.0,5.0,91,0.00,,FEW120,0.14,VWS V14.01,2013-01-12 00:50:00,
2013-01-11 18:52:00,43.5,41.6,29.65,SE,130,0.0,3.0,93,0.00,,OVC014,0.14,VWS V14.01,2013-01-12 00:52:00,
2013-01-11 18:55:00,43.6,42.0,29.65,SE,130,0.0,0.0,94,0.00,,FEW120,0.14,VWS V14.01,2013-01-12 00:55:00,
2013-01-11 18:57:00,44.0,42.4,29.65,SE,128,0.0,0.0,94,0.00,,OVC014,0.14,VWS V14.01,2013-01-12 00:57:00,
2013-01-11 19:00:00,44.2,42.6,29.64,SE,128,0.0,3.0,94,0.00,,FEW120,0.14,VWS V14.01,2013-01-12 01:00:00,
2013-01-11 19:02:00,44.2,42.6,29.64,SE,125,0.0,4.0,94,0.00,,OVC014,0.14,VWS V14.01,2013-01-12 01:02:00,
2013-01-11 19:05:00,44.1,42.5,29.64,SE,132,3.0,4.0,94,0.00,,FEW120,0.14,VWS V14.01,2013-01-12 01:05:00,
2013-01-11 19:08:00,43.9,42.3,29.64,SE,141,5.0,5.0,94,0.00,,OVC014,0.14,VWS V14.01,2013-01-12 01:08:00,
2013-01-11 19:10:00,44.0,42.4,29.64,ESE,119,7.0,7.0,94,0.00,,FEW120,0.14,VWS V14.01,2013-01-12 01:10:00,
2013-01-11 19:13:00,43.6,42.0,29.64,SE,128,5.0,9.0,94,0.00,,OVC014,0.14,VWS V14.01,2013-01-12 01:13:00,
2013-01-11 19:15:00,43.3,41.7,29.63,SE,136,6.0,9.0,94,0.00,,FEW120,0.14,VWS V14.01,2013-01-12 01:15:00,
2013-01-11 19:18:00,43.1,41.5,29.62,ESE,110,4.0,9.0,94,0.00,,OVC014,0.14,VWS V14.01,2013-01-12 01:18:00,
2013-01-11 19:20:00,42.6,40.7,29.63,ESE,118,7.0,9.0,93,0.00,,FEW120,0.14,VWS V14.01,2013-01-12 01:20:00,
2013-01-11 19:23:00,42.0,40.1,29.64,SE,127,6.0,9.0,93,0.00,,OVC014,0.14,VWS V14.01,2013-01-12 01:23:00,
2013-01-11 19:25:00,41.7,40.1,29.65,SE,128,0.0,9.0,94,0.00,,FEW120,0.14,VWS V14.01,2013-01-12 01:25:00,
2013-01-11 19:28:00,41.6,40.0,29.65,ESE,118,7.0,7.0,94,0.00,,OVC014,0.14,VWS V14.01,2013-01-12 01:28:00,
2013-01-11 19:30:00,41.6,40.0,29.65,SE,128,6.0,8.0,94,0.00,,FEW120,0.14,VWS V14.01,2013-01-12 01:30:00,
2013-01-11 19:33:00,41.2,39.6,29.63,ESE,120,5.0,9.0,94,0.00,,OVC014,0.14,VWS V14.01,2013-01-12 01:33:00,
2013-01-11 19:35:00,41.0,39.4,29.63,ESE,107,3.0,9.0,94,0.00,,FEW120,0.14,VWS V14.01,2013-01-12 01:35:00,
2013-01-11 19:38:00,40.8,39.5,29.63,ESE,121,5.0,8.0,95,0.00,,OVC014,0.14,VWS V14.01,2013-01-12 01:38:00,
2013-01-11 19:40:00,40.8,39.5,29.63,ESE,117,0.0,8.0,95,0.00,,FEW120,0.14,VWS V14.01,2013-01-12 01:40:00,
2013-01-11 19:43:00,40.6,39.3,29.63,ESE,119,3.0,10.0,95,0.00,,OVC014,0.14,VWS V14.01,2013-01-12 01:43:00,
2013-01-11 19:45:00,40.6,39.3,29.63,SE,128,7.0,10.0,95,0.00,,FEW120,0.14,VWS V14.01,2013-01-12 01:45:00,
2013-01-11 19:48:00,40.9,39.6,29.63,ESE,123,4.0,8.0,95,0.00,,OVC014,0.14,VWS V14.01,2013-01-12 01:48:00,
2013-01-11 19:50:00,41.0,39.7,29.63,ESE,116,5.0,9.0,95,0.00,,FEW120,0.14,VWS V14.01,2013-01-12 01:50:00,
2013-01-11 19:53:00,41.1,40.0,29.63,ESE,123,8.0,8.0,96,0.00,,OVC014,0.14,VWS V14.01,2013-01-12 01:53:00,
2013-01-11 19:55:00,41.1,39.8,29.62,ESE,104,1.0,8.0,95,0.00,,FEW120,0.14,VWS V14.01,2013-01-12 01:55:00,
2013-01-11 19:58:00,40.7,39.4,29.62,ESE,121,7.0,8.0,95,0.00,,OVC014,0.14,VWS V14.01,2013-01-12 01:58:00,
2013-01-11 20:00:00,40.7,39.4,29.62,SE,125,4.0,8.0,95,0.00,,FEW120,0.14,VWS V14.01,2013-01-12 02:00:00,
2013-01-11 20:03:00,40.9,39.8,29.62,ESE,123,4.0,10.0,96,0.00,,,0.14,VWS V14.01,2013-01-12 02:03:00,
2013-01-11 20:05:00,40.9,39.8,29.62,SE,124,1.0,10.0,96,0.00,,FEW120,0.14,VWS V14.01,2013-01-12 02:05:00,
2013-01-11 20:08:00,41.1,40.0,29.63,ESE,123,4.0,8.0,96,0.00,,,0.14,VWS V14.01,2013-01-12 02:08:00,
2013-01-11 20:10:00,41.1,40.0,29.63,ESE,123,0.0,8.0,96,0.00,,FEW120,0.14,VWS V14.01,2013-01-12 02:10:00,
2013-01-11 20:14:00,41.6,40.5,29.63,SE,132,5.0,5.0,96,0.00,,,0.14,VWS V14.01,2013-01-12 02:14:00,
2013-01-11 20:15:00,41.9,41.1,29.63,ESE,119,0.0,5.0,97,0.00,,FEW120,0.14,VWS V14.01,2013-01-12 02:15:00,
2013-01-11 20:19:00,42.4,41.6,29.62,ESE,119,0.0,1.0,97,0.00,,,0.14,VWS V14.01,2013-01-12 02:19:00,
2013-01-11 20:20:00,42.4,41.6,29.63,ESE,119,0.0,1.0,97,0.00,,FEW120,0.14,VWS V14.01,2013-01-12 02:20:00,
2013-01-11 20:24:00,42.5,41.4,29.63,ESE,119,0.0,4.0,96,0.00,,,0.14,VWS V14.01,2013-01-12 02:24:00,
2013-01-11 20:25:00,42.5,41.4,29.63,ESE,119,0.0,4.0,96,0.00,,FEW120,0.14,VWS V14.01,2013-01-12 02:25:00,
2013-01-11 20:29:00,42.9,42.1,29.63,ESE,119,0.0,3.0,97,0.00,,,0.14,VWS V14.01,2013-01-12 02:29:00,
2013-01-11 20:30:00,42.9,42.1,29.63,ESE,119,0.0,3.0,97,0.00,,FEW120,0.14,VWS V14.01,2013-01-12 02:30:00,
2013-01-11 20:34:00,42.7,41.6,29.63,ESE,119,2.0,7.0,96,0.00,,,0.14,VWS V14.01,2013-01-12 02:34:00,
2013-01-11 20:35:00,42.7,41.6,29.63,ESE,119,2.0,7.0,96,0.00,,FEW120,0.14,VWS V14.01,2013-01-12 02:35:00,
2013-01-11 20:39:00,42.2,41.1,29.62,ESE,123,1.0,7.0,96,0.00,,,0.14,VWS V14.01,2013-01-12 02:39:00,
2013-01-11 20:40:00,42.2,41.1,29.62,ESE,123,0.0,7.0,96,0.00,,,0.14,VWS V14.01,2013-01-12 02:40:00,
2013-01-11 20:44:00,42.0,40.9,29.61,ESE,121,3.0,7.0,96,0.00,,,0.14,VWS V14.01,2013-01-12 02:44:00,
2013-01-11 20:45:00,41.9,40.8,29.61,ESE,122,0.0,7.0,96,0.00,,FEW120,0.14,VWS V14.01,2013-01-12 02:45:00,
2013-01-11 20:49:00,41.3,40.2,29.61,SE,142,4.0,10.0,96,0.00,,,0.14,VWS V14.01,2013-01-12 02:49:00,
2013-01-11 20:50:00,41.2,40.2,29.61,SE,134,2.0,10.0,96,0.00,,,0.14,VWS V14.01,2013-01-12 02:50:00,
2013-01-11 20:54:00,40.8,39.8,29.61,SE,138,2.0,8.0,96,0.00,,,0.14,VWS V14.01,2013-01-12 02:54:00,
2013-01-11 20:55:00,40.8,39.8,29.61,SE,140,5.0,8.0,96,0.00,,FEW120,0.14,VWS V14.01,2013-01-12 02:55:00,
2013-01-11 20:59:00,40.7,39.7,29.61,SE,135,0.0,8.0,96,0.00,,,0.14,VWS V14.01,2013-01-12 02:59:00,
2013-01-11 21:00:00,40.7,39.7,29.61,SE,135,4.0,8.0,96,0.00,,FEW120,0.14,VWS V14.01,2013-01-12 03:00:00,
2013-01-11 21:04:00,40.5,39.5,29.61,SE,130,1.0,8.0,96,0.00,,BKN140,0.14,VWS V14.01,2013-01-12 03:04:00,
2013-01-11 21:05:00,40.5,39.5,29.61,SE,128,6.0,8.0,96,0.00,,FEW120,0.14,VWS V14.01,2013-01-12 03:05:00,
2013-01-11 21:09:00,40.2,39.2,29.60,SE,130,5.0,9.0,96,0.00,,BKN140,0.14,VWS V14.01,2013-01-12 03:09:00,
2013-01-11 21:10:00,40.3,39.2,29.60,SE,130,2.0,9.0,96,0.00,,FEW120,0.14,VWS V14.01,2013-01-12 03:10:00,
2013-01-11 21:14:00,40.2,39.2,29.60,ESE,123,0.0,7.0,96,0.00,,BKN140,0.14,VWS V14.01,2013-01-12 03:14:00,
2013-01-11 21:15:00,40.2,39.2,29.60,ESE,115,3.0,7.0,96,0.00,,FEW120,0.14,VWS V14.01,2013-01-12 03:15:00,
2013-01-11 21:19:00,40.2,39.2,29.61,ESE,115,0.0,7.0,96,0.00,,BKN140,0.14,VWS V14.01,2013-01-12 03:19:00,
2013-01-11 21:20:00,40.2,39.2,29.61,ESE,115,0.0,7.0,96,0.00,,FEW120,0.14,VWS V14.01,2013-01-12 03:20:00,
2013-01-11 21:24:00,39.8,38.8,29.61,ESE,113,0.0,7.0,96,0.00,,BKN140,0.14,VWS V14.01,2013-01-12 03:24:00,
2013-01-11 21:25:00,39.8,38.8,29.61,ESE,113,0.0,7.0,96,0.00,,FEW120,0.14,VWS V14.01,2013-01-12 03:25:00,
2013-01-11 21:29:00,39.8,38.8,29.61,ESE,112,0.0,1.0,96,0.00,,BKN140,0.14,VWS V14.01,2013-01-12 03:29:00,
2013-01-11 21:30:00,39.8,38.8,29.61,ESE,112,0.0,1.0,96,0.00,,FEW120,0.14,VWS V14.01,2013-01-12 03:30:00,
2013-01-11 21:34:00,40.0,39.2,29.61,ESE,113,0.0,0.0,97,0.00,,BKN140,0.14,VWS V14.01,2013-01-12 03:34:00,
2013-01-11 21:35:00,40.0,39.2,29.61,ESE,113,0.0,0.0,97,0.00,,FEW120,0.14,VWS V14.01,2013-01-12 03:35:00,
2013-01-11 21:39:00,39.8,38.8,29.61,ESE,113,0.0,0.0,96,0.00,,BKN140,0.14,VWS V14.01,2013-01-12 03:39:00,
2013-01-11 21:40:00,39.8,38.8,29.61,ESE,113,0.0,0.0,96,0.00,,FEW120,0.14,VWS V14.01,2013-01-12 03:40:00,
2013-01-11 21:44:00,39.9,38.8,29.60,ESE,113,0.0,0.0,96,0.00,,BKN140,0.14,VWS V14.01,2013-01-12 03:44:00,
2013-01-11 21:45:00,39.9,38.8,29.60,ESE,113,0.0,0.0,96,0.00,,FEW120,0.14,VWS V14.01,2013-01-12 03:45:00,
2013-01-11 21:49:00,39.6,38.6,29.60,ESE,113,0.0,0.0,96,0.00,,BKN140,0.14,VWS V14.01,2013-01-12 03:49:00,
2013-01-11 21:50:00,39.6,38.6,29.60,ESE,113,0.0,0.0,96,0.00,,FEW120,0.14,VWS V14.01,2013-01-12 03:50:00,
2013-01-11 21:54:00,39.6,38.6,29.60,ESE,113,0.0,0.0,96,0.00,,BKN140,0.14,VWS V14.01,2013-01-12 03:54:00,
2013-01-11 21:55:00,39.6,38.6,29.60,ESE,113,0.0,0.0,96,0.00,,FEW120,0.14,VWS V14.01,2013-01-12 03:55:00,
2013-01-11 22:00:00,39.6,38.6,29.59,ESE,111,0.0,2.0,96,0.00,,BKN140,0.14,VWS V14.01,2013-01-12 04:00:00,
2013-01-11 22:05:00,39.7,38.9,29.59,ESE,103,0.0,4.0,97,0.00,,BKN180,0.14,VWS V14.01,2013-01-12 04:05:00,
2013-01-11 22:10:00,39.8,39.0,29.59,ESE,112,0.0,5.0,97,0.00,,BKN180,0.14,VWS V14.01,2013-01-12 04:10:00,
2013-01-11 22:15:00,40.7,39.9,29.58,ESE,112,0.0,5.0,97,0.00,,BKN180,0.14,VWS V14.01,2013-01-12 04:15:00,
2013-01-11 22:20:00,45.4,44.9,29.58,South,170,11.0,11.0,98,0.00,,BKN180,0.14,VWS V14.01,2013-01-12 04:20:00,
2013-01-11 22:25:00,47.9,47.4,29.58,South,175,6.0,11.0,98,0.00,,BKN180,0.14,VWS V14.01,2013-01-12 04:25:00,
2013-01-11 22:30:00,48.6,48.1,29.58,South,171,5.0,11.0,98,0.00,,BKN180,0.14,VWS V14.01,2013-01-12 04:30:00,
2013-01-11 22:35:00,49.1,48.6,29.58,SSE,159,7.0,15.0,98,0.00,,BKN180,0.14,VWS V14.01,2013-01-12 04:35:00,
2013-01-11 22:40:00,49.9,49.4,29.57,SSE,165,7.0,18.0,98,0.00,,BKN180,0.14,VWS V14.01,2013-01-12 04:40:00,
2013-01-11 22:45:00,50.4,49.0,29.57,South,179,9.0,13.0,95,0.00,,FEW120,0.14,VWS V14.01,2013-01-12 04:45:00,
2013-01-11 22:46:00,50.4,48.7,29.57,South,175,8.0,13.0,94,0.00,,BKN180,0.14,VWS V14.01,2013-01-12 04:46:00,
2013-01-11 22:50:00,50.6,48.7,29.57,South,180,11.0,15.0,93,0.00,,FEW120,0.14,VWS V14.01,2013-01-12 04:50:00,
2013-01-11 22:51:00,50.7,48.5,29.58,South,186,11.0,15.0,92,0.00,,BKN180,0.14,VWS V14.01,2013-01-12 04:51:00,
2013-01-11 22:55:00,51.0,48.5,29.57,South,171,8.0,19.0,91,0.00,,FEW120,0.14,VWS V14.01,2013-01-12 04:55:00,
2013-01-11 22:56:00,51.0,48.5,29.57,SW,219,10.0,19.0,91,0.00,,BKN180,0.14,VWS V14.01,2013-01-12 04:56:00,
2013-01-11 23:00:00,51.2,48.4,29.57,SSW,198,8.0,19.0,90,0.00,,BKN180,0.14,VWS V14.01,2013-01-12 05:00:00,
2013-01-11 23:01:00,51.3,48.2,29.57,South,181,11.0,19.0,89,0.00,,OVC180,0.14,VWS V14.01,2013-01-12 05:01:00,
2013-01-11 23:05:00,51.3,48.2,29.57,South,185,19.0,19.0,89,0.00,,FEW120,0.14,VWS V14.01,2013-01-12 05:05:00,
2013-01-11 23:06:00,51.4,48.3,29.57,SSW,207,15.0,19.0,89,0.00,,OVC180,0.14,VWS V14.01,2013-01-12 05:06:00,
2013-01-11 23:09:00,51.5,48.1,29.57,South,180,12.0,20.0,88,0.00,,OVC180,0.14,VWS V14.01,2013-01-12 05:09:00,
2013-01-11 23:10:00,51.5,48.1,29.57,South,180,12.0,20.0,88,0.00,,FEW120,0.14,VWS V14.01,2013-01-12 05:10:00,
2013-01-11 23:14:00,51.7,48.3,29.57,SSE,161,13.0,24.0,88,0.00,,OVC180,0.14,VWS V14.01,2013-01-12 05:14:00,
2013-01-11 23:15:00,51.7,48.3,29.57,SSE,161,13.0,24.0,88,0.00,,FEW120,0.14,VWS V14.01,2013-01-12 05:15:00,
2013-01-11 23:19:00,51.9,48.2,29.57,SSW,192,18.0,22.0,87,0.00,,OVC180,0.14,VWS V14.01,2013-01-12 05:19:00,
2013-01-11 23:20:00,51.9,48.2,29.57,SSW,192,18.0,22.0,87,0.00,,FEW120,0.14,VWS V14.01,2013-01-12 05:20:00,
2013-01-11 23:24:00,52.0,48.3,29.57,North,360,16.0,19.0,87,0.00,,OVC180,0.14,VWS V14.01,2013-01-12 05:24:00,
2013-01-11 23:25:00,52.0,48.3,29.57,North,360,16.0,19.0,87,0.00,,FEW120,0.14,VWS V14.01,2013-01-12 05:25:00,
2013-01-11 23:29:00,52.1,48.0,29.57,SSW,198,12.0,22.0,86,0.00,,OVC180,0.14,VWS V14.01,2013-01-12 05:29:00,
2013-01-11 23:30:00,52.1,48.0,29.57,SSW,198,12.0,22.0,86,0.00,,FEW120,0.14,VWS V14.01,2013-01-12 05:30:00,
2013-01-11 23:34:00,52.3,48.2,29.57,South,190,18.0,25.0,86,0.00,,OVC180,0.14,VWS V14.01,2013-01-12 05:34:00,
2013-01-11 23:35:00,52.3,48.2,29.57,South,190,18.0,25.0,86,0.00,,FEW120,0.14,VWS V14.01,2013-01-12 05:35:00,
2013-01-11 23:39:00,52.4,48.0,29.57,SSW,197,12.0,25.0,85,0.00,,OVC180,0.14,VWS V14.01,2013-01-12 05:39:00,
2013-01-11 23:40:00,52.4,48.0,29.57,SSW,197,12.0,25.0,85,0.00,,FEW120,0.14,VWS V14.01,2013-01-12 05:40:00,
2013-01-11 23:44:00,52.4,48.0,29.57,South,187,18.0,22.0,85,0.00,,OVC180,0.14,VWS V14.01,2013-01-12 05:44:00,
2013-01-11 23:45:00,52.4,48.0,29.57,South,187,18.0,22.0,85,0.00,,FEW120,0.14,VWS V14.01,2013-01-12 05:45:00,
2013-01-11 23:49:00,52.3,47.9,29.57,SSW,192,15.0,26.0,85,0.00,,OVC180,0.14,VWS V14.01,2013-01-12 05:49:00,
2013-01-11 23:50:00,52.3,47.9,29.57,SSW,192,15.0,26.0,85,0.00,,FEW120,0.14,VWS V14.01,2013-01-12 05:50:00,
2013-01-11 23:54:00,52.4,48.0,29.57,WSW,252,16.0,25.0,85,0.00,,OVC180,0.14,VWS V14.01,2013-01-12 05:54:00,
2013-01-11 23:55:00,52.4,48.0,29.57,WSW,252,16.0,25.0,85,0.00,,FEW120,0.14,VWS V14.01,2013-01-12 05:55:00,